Stafford Township, New Jersey
Current Conditions -  °F | °C
As of 1:15 PM on Friday 24 Oct 2014 (Local Time) from KMJX Reporting Station
Broken Clouds Broken Clouds  
Wind Chill: 17°   Ceiling: 4500
Heat Index: 17°   Visibility: 10mi
Dew Point:   Wind: 8mph
Humidity: 52%   Direction: 320°NW
Pressure: 29.81"   Gusts: NA
Location:  39.7102°N, 74.2577°W
Report Text: KMJX 241715Z AUTO 32007KT 10SM BKN045 17/07 A2981 RMK AO1
Loading
Personal Weather Stations






























Interactive Weather Map
Tropical Storm Tracking
New forecast layout! Learn more

10-Day Weather Forecast

Advertisements
Track Severe Weather on mobile